Time;durP1;ratioP1;P1;durP2;ratioP2;P2;SDS_P1;SDS_P2;PMS_P1;PMS_P2;Temp;Humidity;BMP_temperature;BMP_pressure;BME280_temperature;BME280_humidity;BME280_pressure;Samples;Min_cycle;Max_cycle;Signal;HPM_P1;HPM_P2
2022/08/07 00:00:28;;;;;;;1.83;1.52;;;;;;;9.94;68.14;99560.56;4202926;28;20063;-70
2022/08/07 00:02:28;;;;;;;1.95;1.23;;;;;;;9.81;69.83;99552.28;4202230;28;20131;-70
2022/08/07 00:04:29;;;;;;;2.17;1.77;;;;;;;9.74;70.29;99551.25;4204366;28;20873;-70
2022/08/07 00:06:29;;;;;;;3.83;1.60;;;;;;;9.68;70.48;99561.75;4200128;28;20052;-70
2022/08/07 00:08:30;;;;;;;2.55;1.88;;;;;;;9.63;70.55;99556.44;4199534;28;20044;-70
2022/08/07 00:10:31;;;;;;;4.63;1.58;;;;;;;9.58;70.41;99560.22;4181440;28;20044;-70
2022/08/07 00:12:31;;;;;;;2.30;1.55;;;;;;;9.57;69.90;99561.38;4200774;28;20114;-70
2022/08/07 00:14:32;;;;;;;2.85;1.50;;;;;;;9.57;69.41;99564.16;4200511;28;20052;-70
2022/08/07 00:16:32;;;;;;;1.67;1.58;;;;;;;9.54;69.66;99559.31;4201703;28;20535;-70
2022/08/07 00:18:33;;;;;;;1.90;1.48;;;;;;;9.52;69.44;99560.81;4201328;28;20460;-70
2022/08/07 00:20:33;;;;;;;4.30;1.73;;;;;;;9.52;68.58;99550.56;4197937;28;20426;-70
2022/08/07 00:22:34;;;;;;;3.20;1.70;;;;;;;9.56;68.16;99557.00;4199004;28;20054;-70
2022/08/07 00:24:35;;;;;;;2.15;1.75;;;;;;;9.57;68.44;99555.84;4198533;28;20510;-70
2022/08/07 00:26:35;;;;;;;2.03;1.70;;;;;;;9.50;68.95;99558.38;4199295;28;20044;-70
2022/08/07 00:28:36;;;;;;;2.08;1.70;;;;;;;9.49;69.36;99554.00;4200485;28;20051;-70
2022/08/07 00:30:36;;;;;;;2.20;1.88;;;;;;;9.41;69.65;99563.22;4200945;28;20115;-70
2022/08/07 00:32:36;;;;;;;1.95;1.80;;;;;;;9.36;70.37;99557.94;4201373;28;20408;-70
2022/08/07 00:34:37;;;;;;;19.27;3.75;;;;;;;9.29;70.92;99552.97;4200104;28;20131;-69
2022/08/07 00:36:37;;;;;;;2.50;2.10;;;;;;;9.25;71.21;99551.22;4201537;28;20074;-70
2022/08/07 00:38:38;;;;;;;2.88;2.00;;;;;;;9.25;71.02;99540.19;4199993;28;20040;-69
2022/08/07 00:40:39;;;;;;;1.67;1.58;;;;;;;9.26;71.65;99552.84;4200057;28;20054;-70
2022/08/07 00:42:40;;;;;;;2.25;2.00;;;;;;;9.21;71.67;99542.84;4200084;28;20082;-69
2022/08/07 00:44:40;;;;;;;2.08;1.88;;;;;;;9.22;71.44;99540.88;4198906;28;20123;-69
2022/08/07 00:46:40;;;;;;;3.28;1.83;;;;;;;9.19;72.25;99539.63;4201629;28;20220;-69
2022/08/07 00:48:41;;;;;;;1.75;1.50;;;;;;;9.17;71.88;99541.09;4201696;28;20040;-70
2022/08/07 00:50:41;;;;;;;2.42;2.00;;;;;;;9.11;72.12;99537.75;4201878;28;20036;-70
2022/08/07 00:52:42;;;;;;;2.50;1.98;;;;;;;9.10;72.07;99532.56;4201790;28;20052;-70
2022/08/07 00:54:42;;;;;;;3.50;2.17;;;;;;;9.08;71.67;99538.44;4202351;28;20135;-69
2022/08/07 00:56:43;;;;;;;2.90;2.10;;;;;;;9.05;71.74;99543.84;4202745;28;20427;-69
2022/08/07 00:58:44;;;;;;;3.70;1.90;;;;;;;8.96;72.22;99533.69;4201109;28;20123;-69
2022/08/07 01:00:45;;;;;;;3.75;2.28;;;;;;;8.86;72.96;99528.63;4201458;28;20373;-69
2022/08/07 01:02:45;;;;;;;3.13;1.85;;;;;;;8.83;72.42;99536.75;4203065;28;20067;-69
2022/08/07 01:04:46;;;;;;;2.08;1.67;;;;;;;8.78;72.89;99534.22;4202268;28;20435;-69
2022/08/07 01:06:46;;;;;;;2.55;1.98;;;;;;;8.77;72.18;99532.59;4202219;28;20451;-69
2022/08/07 01:08:47;;;;;;;2.22;1.70;;;;;;;8.79;73.01;99536.66;4202682;28;20051;-69
2022/08/07 01:10:47;;;;;;;2.22;2.00;;;;;;;8.86;71.34;99539.66;4202131;28;20054;-69
2022/08/07 01:12:49;;;;;;;4.88;2.45;;;;;;;8.87;72.30;99535.75;4202422;28;20320;-69
2022/08/07 01:14:49;;;;;;;2.50;1.92;;;;;;;8.82;72.96;99543.44;4202138;28;20373;-69
2022/08/07 01:16:52;;;;;;;3.00;2.00;;;;;;;8.87;71.99;99541.28;4201966;28;20325;-69
2022/08/07 01:18:53;;;;;;;2.63;2.00;;;;;;;8.90;71.38;99539.78;4201917;28;20055;-69
2022/08/07 01:21:09;;;;;;;4.15;2.30;;;;;;;8.89;71.87;99530.69;4202925;28;20044;-69
2022/08/07 01:23:11;;;;;;;4.20;2.40;;;;;;;8.83;72.21;99545.03;4202871;28;20514;-69
2022/08/07 01:25:12;;;;;;;2.60;2.20;;;;;;;8.76;72.51;99553.06;4201880;28;20127;-69
2022/08/07 01:27:12;;;;;;;2.95;1.95;;;;;;;8.75;71.61;99541.22;4200073;28;20071;-69
2022/08/07 01:29:13;;;;;;;2.75;2.38;;;;;;;8.77;71.82;99538.13;4201427;28;20109;-69
2022/08/07 01:31:16;;;;;;;2.40;2.20;;;;;;;8.77;72.67;99540.88;4201118;28;20069;-69
2022/08/07 01:33:16;;;;;;;3.67;2.30;;;;;;;8.84;71.65;99543.88;4202804;28;20079;-69
2022/08/07 01:35:17;;;;;;;3.58;2.00;;;;;;;8.89;70.97;99544.50;4200697;28;20040;-69
2022/08/07 01:37:17;;;;;;;4.82;2.03;;;;;;;8.85;70.86;99543.53;4202721;28;20101;-69
2022/08/07 01:39:18;;;;;;;1.98;1.75;;;;;;;8.82;70.26;99555.28;4201591;28;20454;-69
2022/08/07 01:41:19;;;;;;;2.90;1.80;;;;;;;8.73;71.14;99546.28;4201558;28;20130;-69
2022/08/07 01:43:20;;;;;;;3.03;1.70;;;;;;;8.62;71.49;99542.34;4201360;28;20056;-69
2022/08/07 01:45:20;;;;;;;2.88;1.73;;;;;;;8.51;71.91;99535.59;4200136;28;20381;-69
2022/08/07 01:47:21;;;;;;;2.72;1.90;;;;;;;8.46;71.92;99542.16;4199169;28;20094;-69
2022/08/07 01:49:21;;;;;;;2.30;2.10;;;;;;;8.42;71.34;99535.69;4201285;28;20044;-69
2022/08/07 01:51:24;;;;;;;2.95;2.10;;;;;;;8.42;72.03;99543.97;4201513;28;20159;-68
2022/08/07 01:53:25;;;;;;;2.63;2.42;;;;;;;8.32;73.20;99539.63;4199487;28;20048;-69
2022/08/07 01:55:28;;;;;;;3.57;2.47;;;;;;;8.33;72.34;99534.94;4201146;28;20055;-69
2022/08/07 01:57:33;;;;;;;5.40;2.40;;;;;;;8.37;73.36;99533.16;4200501;28;20381;-69
2022/08/07 01:59:53;;;;;;;3.15;2.58;;;;;;;8.36;73.17;99528.78;4202573;28;20055;-69
2022/08/07 02:02:01;;;;;;;3.85;2.50;;;;;;;8.43;72.85;99529.03;4201165;28;20032;-69
2022/08/07 02:04:16;;;;;;;2.40;2.00;;;;;;;8.36;74.48;99521.31;4201310;28;20080;-70
2022/08/07 02:06:20;;;;;;;2.97;2.03;;;;;;;8.38;73.06;99535.56;4201186;28;20028;-69
2022/08/07 02:08:23;;;;;;;4.65;2.38;;;;;;;8.41;73.80;99536.84;4202385;28;20032;-69
2022/08/07 02:10:26;;;;;;;5.20;2.30;;;;;;;8.30;74.63;99536.41;4201853;28;20397;-69
2022/08/07 02:12:32;;;;;;;2.20;1.90;;;;;;;8.28;73.30;99529.63;4201215;28;20123;-69
2022/08/07 02:14:35;;;;;;;3.45;2.15;;;;;;;8.15;76.04;99531.50;4200260;28;20147;-69
2022/08/07 02:16:37;;;;;;;2.50;2.10;;;;;;;8.06;75.79;99531.56;4200430;28;20718;-69
2022/08/07 02:18:38;;;;;;;;;;;;;;;8.07;75.28;99529.63;4200207;28;20481;-69
2022/08/07 02:20:41;;;;;;;3.35;2.63;;;;;;;8.01;75.13;99529.00;4202461;28;19912;-69
2022/08/07 02:22:43;;;;;;;3.17;2.30;;;;;;;8.03;75.17;99542.47;4201155;28;20067;-69
2022/08/07 02:24:45;;;;;;;3.53;1.92;;;;;;;8.08;73.98;99529.28;4200529;28;20130;-69
2022/08/07 02:26:48;;;;;;;3.05;2.30;;;;;;;8.08;74.34;99531.22;4201447;28;20047;-69
2022/08/07 02:28:49;;;;;;;2.60;2.03;;;;;;;8.04;74.72;99539.38;4200771;28;20558;-69
2022/08/07 02:30:51;;;;;;;4.78;2.60;;;;;;;8.13;72.86;99542.06;4201825;28;20387;-69
2022/08/07 02:32:52;;;;;;;3.30;2.17;;;;;;;8.14;73.61;99529.91;4200621;28;20553;-69
2022/08/07 02:34:55;;;;;;;5.45;2.08;;;;;;;8.08;74.38;99534.78;4202253;28;20040;-69
2022/08/07 02:36:57;;;;;;;2.58;1.98;;;;;;;8.06;73.80;99531.56;4200703;28;20218;-69
2022/08/07 02:38:58;;;;;;;2.30;2.10;;;;;;;8.04;74.06;99527.56;4201311;28;20036;-69
2022/08/07 02:41:00;;;;;;;3.13;2.47;;;;;;;7.92;74.60;99522.75;4200590;28;20040;-69
2022/08/07 02:43:01;;;;;;;2.10;1.90;;;;;;;7.88;74.88;99530.91;4201844;28;20048;-69
2022/08/07 02:45:05;;;;;;;8.30;2.35;;;;;;;7.82;74.97;99529.47;4200635;28;20270;-69
2022/08/07 02:47:07;;;;;;;3.65;2.08;;;;;;;7.86;74.56;99522.16;4201374;28;20102;-69
2022/08/07 02:49:08;;;;;;;8.02;2.50;;;;;;;7.85;75.21;99528.78;4201942;28;20058;-69
2022/08/07 02:51:13;;;;;;;6.57;2.20;;;;;;;7.90;74.18;99516.78;4204167;28;20045;-69
2022/08/07 02:53:37;;;;;;;3.10;2.50;;;;;;;7.82;75.23;99518.44;4203961;28;20052;-69
2022/08/07 02:55:46;;;;;;;2.92;2.35;;;;;;;7.74;75.36;99516.56;4203614;28;20361;-69
2022/08/07 02:57:48;;;;;;;3.20;2.20;;;;;;;7.66;76.19;99522.13;4194383;28;20531;-69
2022/08/07 02:59:50;;;;;;;2.35;2.05;;;;;;;7.65;76.95;99529.56;4204572;28;20318;-69
2022/08/07 03:01:51;;;;;;;3.55;2.33;;;;;;;7.60;77.87;99529.75;4203998;28;20048;-69
2022/08/07 03:03:52;;;;;;;7.05;3.17;;;;;;;7.62;77.22;99535.75;4204275;28;20065;-69
2022/08/07 03:05:55;;;;;;;4.38;2.30;;;;;;;7.59;76.96;99523.44;4203602;28;20117;-69
2022/08/07 03:07:57;;;;;;;4.15;2.42;;;;;;;7.54;76.40;99526.41;4204267;28;20329;-69
2022/08/07 03:09:58;;;;;;;4.72;2.25;;;;;;;7.55;76.49;99524.47;4204012;28;20441;-69
2022/08/07 03:12:01;;;;;;;3.60;2.47;;;;;;;7.55;76.72;99529.97;4203866;28;20333;-69
2022/08/07 03:14:03;;;;;;;2.60;1.88;;;;;;;7.55;76.46;99533.53;4202939;28;20081;-69
2022/08/07 03:16:03;;;;;;;2.63;1.85;;;;;;;7.47;76.68;99526.13;4202396;28;20043;-69
2022/08/07 03:18:04;;;;;;;5.68;2.10;;;;;;;7.44;76.76;99524.00;4205534;28;20541;-69
2022/08/07 03:20:05;;;;;;;3.15;2.33;;;;;;;7.43;76.82;99521.59;4203225;28;20032;-69
2022/08/07 03:22:06;;;;;;;5.47;3.17;;;;;;;7.32;77.37;99530.22;4203387;28;20035;-69
2022/08/07 03:24:07;;;;;;;2.25;2.00;;;;;;;7.29;76.69;99517.13;4203799;28;20024;-69
2022/08/07 03:26:09;;;;;;;3.95;2.28;;;;;;;7.23;77.54;99517.66;4203158;28;20298;-69
2022/08/07 03:28:12;;;;;;;3.83;2.13;;;;;;;7.14;78.63;99516.88;4203687;28;20036;-69
2022/08/07 03:30:13;;;;;;;5.78;3.22;;;;;;;7.07;79.65;99514.63;4203448;28;20110;-69
2022/08/07 03:32:15;;;;;;;4.10;2.10;;;;;;;7.09;77.47;99514.28;4202937;28;20384;-69
2022/08/07 03:34:18;;;;;;;3.20;2.88;;;;;;;7.05;78.00;99505.91;4201781;28;20028;-69
2022/08/07 03:36:20;;;;;;;4.72;2.40;;;;;;;7.03;78.49;99513.66;4203271;28;20067;-69
2022/08/07 03:38:20;;;;;;;4.85;2.30;;;;;;;7.02;78.57;99509.28;4204096;28;20035;-69
2022/08/07 03:40:22;;;;;;;3.10;2.30;;;;;;;6.98;79.62;99503.66;4203319;28;20056;-69
2022/08/07 03:42:24;;;;;;;2.75;2.22;;;;;;;7.00;78.87;99497.81;4203425;28;20036;-69
2022/08/07 03:44:26;;;;;;;3.20;2.38;;;;;;;6.97;78.54;99504.00;4203962;28;20075;-69
2022/08/07 03:46:27;;;;;;;3.20;2.55;;;;;;;6.91;79.84;99499.81;4202449;28;20400;-69
2022/08/07 03:48:28;;;;;;;7.43;3.30;;;;;;;6.88;79.51;99501.28;4201939;28;20044;-69
2022/08/07 03:50:29;;;;;;;5.05;2.40;;;;;;;6.92;79.27;99506.91;4204772;28;20598;-69
2022/08/07 03:52:31;;;;;;;2.40;2.13;;;;;;;6.91;79.71;99502.56;4202969;28;20051;-69
2022/08/07 03:54:31;;;;;;;8.82;3.70;;;;;;;6.89;79.70;99508.38;4201757;28;20047;-69
2022/08/07 03:56:33;;;;;;;5.78;2.53;;;;;;;6.88;79.37;99500.47;4202856;28;20052;-69
2022/08/07 03:58:34;;;;;;;4.07;2.33;;;;;;;6.93;78.92;99505.78;4203494;28;20085;-69
2022/08/07 04:00:37;;;;;;;6.07;2.50;;;;;;;6.87;80.04;99502.41;4204569;28;20590;-69
2022/08/07 04:02:37;;;;;;;5.43;2.53;;;;;;;6.85;79.46;99501.91;4202722;28;20050;-69
2022/08/07 04:04:41;;;;;;;5.75;2.63;;;;;;;6.77;80.13;99511.00;4203956;28;20533;-69
2022/08/07 04:06:43;;;;;;;3.35;2.20;;;;;;;6.72;80.59;99514.75;4202844;28;20467;-69
2022/08/07 04:08:44;;;;;;;3.28;2.50;;;;;;;6.70;81.20;99513.44;4202198;28;20093;-69
2022/08/07 04:10:47;;;;;;;3.97;2.30;;;;;;;6.64;81.22;99518.31;4203112;28;20420;-69
2022/08/07 04:12:49;;;;;;;4.88;2.17;;;;;;;6.62;80.99;99520.59;4202783;28;20093;-69
2022/08/07 04:14:50;;;;;;;4.03;2.83;;;;;;;6.61;81.71;99513.44;4201666;28;20056;-69
2022/08/07 04:16:51;;;;;;;4.90;2.97;;;;;;;6.57;82.25;99518.00;4204010;28;20040;-69
2022/08/07 04:18:51;;;;;;;4.43;2.60;;;;;;;6.48;83.47;99515.28;4202969;28;20487;-69
2022/08/07 04:20:52;;;;;;;4.15;2.75;;;;;;;6.48;83.52;99515.28;4204118;28;20123;-69
2022/08/07 04:22:53;;;;;;;3.92;2.80;;;;;;;6.46;83.28;99517.53;4201875;28;20430;-69
2022/08/07 04:24:54;;;;;;;6.55;2.38;;;;;;;6.50;82.14;99511.38;4202145;28;20048;-69
2022/08/07 04:26:56;;;;;;;6.22;2.63;;;;;;;6.48;82.45;99520.78;4202236;28;20043;-69
2022/08/07 04:28:57;;;;;;;4.00;2.73;;;;;;;6.48;82.95;99514.47;4201473;28;20374;-69
2022/08/07 04:30:57;;;;;;;4.53;2.40;;;;;;;6.47;82.31;99513.66;4202391;28;20036;-69
2022/08/07 04:32:58;;;;;;;4.60;2.60;;;;;;;6.49;82.37;99516.06;4201785;28;20059;-69
2022/08/07 04:35:00;;;;;;;5.55;2.38;;;;;;;6.52;81.83;99520.91;4203235;28;20044;-69
2022/08/07 04:37:01;;;;;;;3.97;2.55;;;;;;;6.59;81.01;99526.72;4202393;28;20061;-69
2022/08/07 04:39:03;;;;;;;3.08;2.50;;;;;;;6.65;81.17;99536.44;4193780;28;20056;-69
2022/08/07 04:41:04;;;;;;;;;;;;;;;6.65;81.39;99532.88;4201475;28;20052;-69
2022/08/07 04:43:04;;;;;;;3.47;2.40;;;;;;;6.70;80.70;99540.94;4202331;28;20321;-68
2022/08/07 04:45:06;;;;;;;3.42;2.22;;;;;;;6.71;79.56;99532.38;4201181;28;20055;-69
2022/08/07 04:47:12;;;;;;;2.72;2.20;;;;;;;6.75;80.02;99536.06;4201092;28;20484;-69
2022/08/07 04:49:26;;;;;;;4.22;2.10;;;;;;;6.79;79.74;99540.94;4203150;28;20047;-69
2022/08/07 04:51:36;;;;;;;3.80;2.53;;;;;;;6.89;79.86;99540.59;4202317;28;20044;-69
2022/08/07 04:53:57;;;;;;;6.72;2.33;;;;;;;6.99;79.03;99545.72;4203320;28;20082;-69
2022/08/07 04:56:20;;;;;;;3.47;2.58;;;;;;;7.02;80.27;99542.31;4201247;28;20044;-69
2022/08/07 04:58:49;;;;;;;2.92;2.50;;;;;;;7.06;79.67;99543.28;4201760;28;20044;-69
2022/08/07 05:01:02;;;;;;;2.95;2.35;;;;;;;7.10;79.56;99537.91;4202296;28;20071;-69
2022/08/07 05:03:40;;;;;;;3.58;2.95;;;;;;;7.18;79.57;99551.66;4202894;28;20068;-69
2022/08/07 05:06:04;;;;;;;5.82;2.60;;;;;;;7.26;79.89;99544.50;4202096;28;20051;-69
2022/08/07 05:08:39;;;;;;;2.95;2.50;;;;;;;7.36;79.20;99544.13;4201672;28;20056;-69
2022/08/07 05:10:47;;;;;;;4.13;2.90;;;;;;;7.49;77.92;99540.34;4200249;28;20094;-69
2022/08/07 05:12:56;;;;;;;4.05;2.50;;;;;;;7.65;77.27;99545.31;4202052;28;20143;-69
2022/08/07 05:15:15;;;;;;;2.72;2.42;;;;;;;7.79;76.63;99546.69;4201551;28;20541;-69
2022/08/07 05:17:19;;;;;;;4.65;2.42;;;;;;;7.91;76.01;99545.94;4201730;28;20051;-69
2022/08/07 05:19:24;;;;;;;3.15;2.40;;;;;;;8.04;76.36;99544.91;4202263;28;20109;-69
2022/08/07 05:21:26;;;;;;;2.50;2.30;;;;;;;8.17;76.36;99554.03;4202087;28;20047;-69
2022/08/07 05:23:42;;;;;;;2.40;2.13;;;;;;;8.31;75.74;99551.81;4202553;28;20075;-69
2022/08/07 05:25:43;;;;;;;6.30;2.63;;;;;;;8.45;75.39;99557.09;4201735;28;20134;-69
2022/08/07 05:27:45;;;;;;;4.03;2.67;;;;;;;8.57;75.11;99548.06;4202862;28;20082;-69
2022/08/07 05:29:48;;;;;;;2.90;2.70;;;;;;;8.65;74.70;99545.22;4201004;28;20055;-69
2022/08/07 05:31:49;;;;;;;2.80;2.38;;;;;;;8.78;73.48;99556.31;4202525;28;20475;-69
2022/08/07 05:33:52;;;;;;;3.00;2.65;;;;;;;8.90;73.32;99553.56;4202668;28;20044;-69
2022/08/07 05:35:54;;;;;;;;;;;;;;;8.99;74.24;99552.31;4203508;28;20048;-69
2022/08/07 05:37:54;;;;;;;4.60;2.55;;;;;;;9.06;73.84;99562.00;4202167;28;20032;-69
2022/08/07 05:39:55;;;;;;;2.78;2.58;;;;;;;9.13;74.06;99557.53;4201937;28;20051;-69
2022/08/07 05:41:56;;;;;;;4.15;2.40;;;;;;;9.21;72.73;99564.13;4201753;28;20036;-69
2022/08/07 05:43:57;;;;;;;3.63;2.70;;;;;;;9.31;72.76;99560.91;4201771;28;20059;-69
2022/08/07 05:46:01;;;;;;;2.65;2.33;;;;;;;9.42;72.85;99561.25;4200712;28;20092;-69
2022/08/07 05:48:03;;;;;;;5.95;3.17;;;;;;;9.50;75.00;99563.91;4201472;28;20385;-70
2022/08/07 05:50:04;;;;;;;3.97;2.80;;;;;;;9.60;74.73;99561.84;4198464;28;20156;-69
2022/08/07 05:52:05;;;;;;;7.32;2.85;;;;;;;9.69;75.84;99565.31;4201512;28;20040;-69
2022/08/07 05:54:05;;;;;;;3.10;2.42;;;;;;;9.78;75.34;99561.28;4200710;28;20490;-69
2022/08/07 05:56:08;;;;;;;3.90;2.40;;;;;;;9.86;74.27;99562.31;4201215;28;20301;-69
2022/08/07 05:58:10;;;;;;;2.95;2.45;;;;;;;9.93;73.27;99558.94;4199761;28;20170;-69
2022/08/07 06:00:11;;;;;;;3.13;2.65;;;;;;;10.02;72.82;99568.75;4201784;28;20036;-69
2022/08/07 06:02:18;;;;;;;3.35;3.00;;;;;;;10.15;72.84;99563.97;4202561;28;20035;-69
2022/08/07 06:04:20;;;;;;;3.50;2.63;;;;;;;10.24;72.10;99566.66;4200155;28;20039;-69
2022/08/07 06:06:22;;;;;;;3.03;2.72;;;;;;;10.32;71.52;99565.69;4199504;28;20097;-69
2022/08/07 06:08:24;;;;;;;3.70;2.65;;;;;;;10.44;71.06;99564.88;4200709;28;20484;-69
2022/08/07 06:10:25;;;;;;;3.03;2.72;;;;;;;10.53;70.18;99560.00;4202447;28;20492;-69
2022/08/07 06:12:26;;;;;;;2.50;2.28;;;;;;;10.59;69.21;99558.56;4200972;28;20063;-69
2022/08/07 06:14:27;;;;;;;3.40;2.38;;;;;;;10.67;69.50;99555.69;4200996;28;20421;-69
2022/08/07 06:16:32;;;;;;;4.65;2.33;;;;;;;10.72;68.91;99557.38;4201163;28;20135;-69
2022/08/07 06:18:33;;;;;;;8.05;2.75;;;;;;;10.82;68.92;99554.09;4201007;28;20052;-69
2022/08/07 06:20:36;;;;;;;3.03;2.50;;;;;;;10.91;68.34;99554.75;4201096;28;20586;-69
2022/08/07 06:22:38;;;;;;;3.08;2.78;;;;;;;11.01;68.28;99558.97;4201379;28;20433;-69
2022/08/07 06:24:38;;;;;;;5.28;2.22;;;;;;;11.18;67.01;99560.63;4202298;28;20487;-69
2022/08/07 06:26:42;;;;;;;3.83;2.38;;;;;;;11.26;66.82;99559.63;4204848;28;20448;-69
2022/08/07 06:28:53;;;;;;;2.53;2.03;;;;;;;11.33;65.93;99548.72;4205333;28;20044;-69
2022/08/07 06:30:54;;;;;;;2.33;2.03;;;;;;;11.41;66.00;99555.25;4203949;28;20135;-69
2022/08/07 06:32:55;;;;;;;2.58;2.00;;;;;;;11.49;66.42;99548.72;4206284;28;20054;-69
2022/08/07 06:34:55;;;;;;;4.82;2.50;;;;;;;11.62;66.44;99557.75;4203515;28;20123;-69
2022/08/07 06:36:55;;;;;;;2.83;2.38;;;;;;;11.75;65.72;99556.47;4205074;28;20162;-69
2022/08/07 06:38:56;;;;;;;5.20;3.03;;;;;;;11.89;64.87;99553.28;4205420;28;20040;-69
2022/08/07 06:40:59;;;;;;;2.33;1.75;;;;;;;12.00;63.40;99559.88;4205159;28;20055;-69
2022/08/07 06:43:04;;;;;;;2.42;1.80;;;;;;;12.09;63.30;99552.16;4204803;28;20052;-69
2022/08/07 06:45:10;;;;;;;2.25;1.88;;;;;;;12.18;63.42;99549.19;4203730;28;20400;-69
2022/08/07 06:47:10;;;;;;;5.63;2.10;;;;;;;12.29;63.20;99547.44;4203974;28;20055;-69
2022/08/07 06:49:11;;;;;;;2.22;1.67;;;;;;;12.38;62.56;99539.69;4202679;28;20119;-69
2022/08/07 06:51:22;;;;;;;5.80;2.40;;;;;;;12.47;62.31;99545.84;4206058;28;20053;-69
2022/08/07 06:53:25;;;;;;;2.78;1.90;;;;;;;12.57;62.32;99552.78;4203919;28;20205;-69
2022/08/07 06:55:29;;;;;;;2.40;1.85;;;;;;;12.65;62.56;99540.66;4204821;28;20052;-69
2022/08/07 06:57:30;;;;;;;4.88;2.38;;;;;;;12.78;63.40;99542.13;4204258;28;20154;-69
2022/08/07 06:59:34;;;;;;;2.97;1.73;;;;;;;12.93;61.61;99551.53;4203754;28;20048;-69
2022/08/07 07:01:36;;;;;;;2.17;1.83;;;;;;;13.01;61.28;99544.13;4204619;28;20429;-69
2022/08/07 07:03:39;;;;;;;3.33;1.85;;;;;;;13.14;60.49;99551.09;4204059;28;20480;-69
2022/08/07 07:05:41;;;;;;;2.28;1.80;;;;;;;13.22;59.80;99544.53;4203335;28;20056;-69
2022/08/07 07:07:44;;;;;;;2.05;1.48;;;;;;;13.34;60.60;99544.38;4204548;28;20052;-69
2022/08/07 07:09:47;;;;;;;1.70;1.38;;;;;;;13.45;59.09;99539.78;4203674;28;20597;-69
2022/08/07 07:11:53;;;;;;;4.07;1.48;;;;;;;13.58;59.38;99550.72;4201892;28;20055;-69
2022/08/07 07:13:54;;;;;;;2.80;1.60;;;;;;;13.71;58.01;99550.13;4204931;28;20055;-69
2022/08/07 07:15:59;;;;;;;2.75;1.38;;;;;;;13.82;56.79;99536.41;4204226;28;20056;-69
2022/08/07 07:18:08;;;;;;;1.40;1.20;;;;;;;13.90;56.33;99540.09;4204888;28;20040;-69
2022/08/07 07:20:22;;;;;;;5.72;1.67;;;;;;;13.96;55.45;99535.81;4203701;28;20538;-69
2022/08/07 07:22:24;;;;;;;2.03;1.20;;;;;;;14.05;55.52;99530.78;4203567;28;20032;-70
2022/08/07 07:24:25;;;;;;;3.60;1.63;;;;;;;14.11;54.77;99532.06;4202301;28;20159;-70
2022/08/07 07:26:29;;;;;;;3.00;1.50;;;;;;;14.16;54.40;99528.97;4205386;28;20072;-70
2022/08/07 07:28:38;;;;;;;2.00;1.10;;;;;;;14.23;54.40;99531.84;4204051;28;20388;-70
2022/08/07 07:30:41;;;;;;;3.10;1.52;;;;;;;14.32;54.53;99528.78;4202524;28;20313;-70
2022/08/07 07:32:44;;;;;;;1.30;1.15;;;;;;;14.44;54.47;99528.53;4203998;28;20075;-70
2022/08/07 07:34:48;;;;;;;1.98;1.20;;;;;;;14.56;54.64;99519.16;4202079;28;20396;-70
2022/08/07 07:36:50;;;;;;;1.48;1.00;;;;;;;14.69;54.48;99542.00;4202714;28;20512;-70
2022/08/07 07:38:51;;;;;;;1.30;1.10;;;;;;;14.74;53.69;99520.19;4201793;28;20221;-70
2022/08/07 07:41:02;;;;;;;2.47;1.17;;;;;;;14.83;53.79;99525.44;4204007;28;20044;-70
2022/08/07 07:43:04;;;;;;;2.28;1.10;;;;;;;14.95;52.94;99530.75;4203741;28;20105;-70
2022/08/07 07:45:06;;;;;;;2.55;1.38;;;;;;;15.06;52.55;99514.94;4203678;28;20140;-70
2022/08/07 07:47:09;;;;;;;1.35;1.23;;;;;;;15.15;52.76;99521.00;4203977;28;20055;-70
2022/08/07 07:49:13;;;;;;;1.23;1.10;;;;;;;15.31;52.04;99519.97;4204125;28;20165;-70
2022/08/07 07:51:15;;;;;;;2.75;1.42;;;;;;;15.42;51.92;99516.06;4203332;28;20079;-70
2022/08/07 07:53:19;;;;;;;2.30;1.00;;;;;;;15.55;51.66;99510.97;4203673;28;20048;-70
2022/08/07 07:55:20;;;;;;;2.75;1.10;;;;;;;15.71;50.35;99511.53;4203423;28;20032;-70
2022/08/07 07:57:23;;;;;;;3.47;1.50;;;;;;;15.83;50.43;99507.66;4203191;28;20056;-70
2022/08/07 07:59:25;;;;;;;2.47;1.20;;;;;;;15.99;49.34;99504.56;4201662;28;20040;-70
2022/08/07 08:01:27;;;;;;;3.25;1.10;;;;;;;16.14;49.51;99505.44;4202804;28;20089;-70
2022/08/07 08:03:29;;;;;;;1.10;1.00;;;;;;;16.26;49.10;99507.88;4203757;28;20491;-70
2022/08/07 08:05:29;;;;;;;1.55;1.05;;;;;;;16.36;48.44;99504.34;4202532;28;20048;-70
2022/08/07 08:07:34;;;;;;;1.25;1.02;;;;;;;16.44;48.74;99497.59;4203130;28;20079;-70
2022/08/07 08:09:36;;;;;;;3.13;1.20;;;;;;;16.43;49.42;99509.16;4203196;28;20036;-70
2022/08/07 08:11:37;;;;;;;2.25;0.93;;;;;;;16.54;49.11;99498.81;4204282;28;20047;-70
2022/08/07 08:13:41;;;;;;;1.65;1.40;;;;;;;16.67;48.79;99502.88;4203133;28;20048;-70
2022/08/07 08:15:46;;;;;;;1.10;1.00;;;;;;;16.89;47.95;99497.38;4201802;28;20052;-70
2022/08/07 08:17:47;;;;;;;4.03;1.15;;;;;;;17.04;46.61;99488.59;4203059;28;20036;-70
2022/08/07 08:19:51;;;;;;;3.05;1.13;;;;;;;17.19;47.42;99499.81;4201412;28;20044;-70
2022/08/07 08:28:54;;;;;;;2.25;0.90;;;;;;;17.61;45.08;99483.03;4201159;28;20046;-70
2022/08/07 08:30:57;;;;;;;2.03;0.95;;;;;;;17.62;45.60;99489.44;4202541;28;20052;-70
2022/08/07 08:33:00;;;;;;;4.00;1.05;;;;;;;17.74;45.50;99485.47;4202558;28;20048;-70
2022/08/07 08:35:01;;;;;;;4.20;1.27;;;;;;;17.71;46.09;99487.06;4202624;28;20507;-70
2022/08/07 08:37:03;;;;;;;3.38;1.00;;;;;;;17.82;45.38;99489.84;4203900;28;20040;-71
2022/08/07 08:39:07;;;;;;;1.65;1.17;;;;;;;17.98;44.02;99489.44;4201457;28;20238;-71
2022/08/07 08:41:17;;;;;;;1.23;0.85;;;;;;;18.20;43.38;99486.16;4203518;28;20096;-70
2022/08/07 08:43:25;;;;;;;1.55;0.80;;;;;;;18.34;43.25;99487.31;4203289;28;20766;-70
2022/08/07 08:46:05;;;;;;;2.13;0.85;;;;;;;18.50;43.46;99480.03;4201750;28;20740;-71
2022/08/07 08:48:43;;;;;;;1.70;0.90;;;;;;;18.65;42.41;99479.97;4202227;28;20047;-71
2022/08/07 08:50:49;;;;;;;1.17;0.77;;;;;;;18.50;43.64;99485.63;4201261;28;20047;-71
2022/08/07 08:53:02;;;;;;;1.10;0.80;;;;;;;18.66;42.43;99476.00;4201144;28;20147;-71
2022/08/07 08:55:17;;;;;;;0.90;0.90;;;;;;;18.74;42.94;99460.72;4202761;28;20096;-71
2022/08/07 08:57:29;;;;;;;1.85;1.00;;;;;;;18.97;42.15;99471.41;4201259;28;20098;-71
2022/08/07 08:59:52;;;;;;;2.70;0.80;;;;;;;19.12;41.54;99461.69;4198235;28;21213;-71
2022/08/07 09:02:04;;;;;;;1.67;0.80;;;;;;;19.14;41.20;99455.66;4197171;28;20044;-71
2022/08/07 09:04:14;;;;;;;3.85;1.00;;;;;;;19.12;40.61;99458.09;4201091;28;20488;-71
2022/08/07 09:06:34;;;;;;;3.10;1.10;;;;;;;19.13;40.82;99454.06;4201615;28;20020;-71
2022/08/07 09:09:07;;;;;;;3.15;0.90;;;;;;;19.11;40.53;99451.66;4199706;28;20127;-71
2022/08/07 09:11:16;;;;;;;1.35;0.90;;;;;;;19.18;40.69;99457.22;4200646;28;20714;-71
2022/08/07 09:13:32;;;;;;;7.05;1.10;;;;;;;19.36;41.25;99446.66;4200059;28;20052;-71
2022/08/07 09:15:57;;;;;;;1.65;1.00;;;;;;;19.52;40.86;99457.34;4200977;28;20495;-71
2022/08/07 09:18:29;;;;;;;0.95;0.80;;;;;;;19.57;39.42;99445.69;4201929;28;20051;-71
2022/08/07 09:20:53;;;;;;;2.03;1.13;;;;;;;19.52;40.17;99450.91;4165828;28;20468;-71
2022/08/07 09:23:03;;;;;;;1.10;1.00;;;;;;;19.63;39.71;99443.25;4202189;28;20385;-71
2022/08/07 09:25:11;;;;;;;1.63;1.10;;;;;;;19.64;39.06;99436.41;4199536;28;20051;-71
2022/08/07 09:27:36;;;;;;;1.60;1.00;;;;;;;19.67;38.99;99444.00;4214631;28;20044;-71
2022/08/07 09:29:49;;;;;;;0.95;0.73;;;;;;;19.69;39.74;99449.97;4201336;28;20055;-71
2022/08/07 09:32:08;;;;;;;1.50;1.20;;;;;;;19.79;39.88;99439.88;4198115;28;20118;-71
2022/08/07 09:34:16;;;;;;;2.67;1.00;;;;;;;19.79;40.07;99439.88;4200087;28;20108;-71
2022/08/07 09:36:23;;;;;;;1.30;0.70;;;;;;;19.89;39.91;99442.56;4200269;28;20035;-71
2022/08/07 09:38:45;;;;;;;2.95;1.00;;;;;;;19.74;40.57;99429.88;4201035;28;20058;-71
2022/08/07 09:40:58;;;;;;;2.00;1.00;;;;;;;19.73;38.13;99419.88;4201397;28;20044;-71
2022/08/07 09:43:22;;;;;;;2.15;0.98;;;;;;;19.87;38.00;99425.34;4202063;28;20044;-71
2022/08/07 09:45:45;;;;;;;1.63;0.95;;;;;;;20.02;37.63;99420.34;4201012;28;20044;-71
2022/08/07 09:48:20;;;;;;;1.00;0.82;;;;;;;19.85;37.53;99415.72;4185305;28;20513;-71
2022/08/07 09:50:54;;;;;;;1.20;1.10;;;;;;;20.00;38.16;99422.00;4201568;28;20302;-71
2022/08/07 09:53:04;;;;;;;3.72;1.00;;;;;;;20.05;38.51;99413.13;4202660;28;20101;-71
2022/08/07 09:55:20;;;;;;;2.40;0.85;;;;;;;20.23;38.79;99410.06;4201074;28;20052;-71
2022/08/07 09:57:51;;;;;;;1.30;1.00;;;;;;;20.36;37.79;99408.31;4201192;28;20044;-70
2022/08/07 10:00:12;;;;;;;3.65;1.02;;;;;;;20.44;38.42;99404.22;4200508;28;20070;-70